Holandia — V2OF5 — position and weather

sailwx.info

Track history (hours):
 
Tides and Currents Weather Stations Pressure Air Temp Water Temp Dewpoint Dewpoint Depression Visibility Wind Speed Wind Dir Waves Ship Positions

Holandia

Last reported at 2017-Oct-18 22:58 UTC. Time now 2017-Oct-19 15:06 UTC.
Position N 38°46' E 001°05'.

Length 132 m; draft 7.3 m.

Type: Ship (hazmat cat A). MMSI: 304134000.

Date/timePositionNaut miles runAvg speedWind from/ knotsBaromVisibWave heightAir tempDewpointWater temp
2017-Oct-18 22:58N 38°46' E 001°05'135 2.6
2017-Oct-16 19:05N 40°56' E 001°56'114.7
2017-Oct-16 19:00N 40°57' E 001°57'714.7
2017-Oct-16 18:30N 41°03' E 002°02'17 1.2
2017-Oct-16 04:08N 41°18' E 002°11'1 6.1
2017-Oct-16 03:57N 41°18' E 002°12'1 0.6
2017-Oct-16 02:47N 41°19' E 002°12'0 0.0
2017-Oct-16 02:29N 41°19' E 002°12'0 0.0
2017-Oct-16 01:17N 41°19' E 002°12'0 0.0
2017-Oct-15 23:35N 41°19' E 002°12'0 0.0
2017-Oct-14 12:59N 41°19' E 002°12'0 0.0
2017-Oct-14 12:14N 41°19' E 002°12'0 0.1
2017-Oct-14 11:59N 41°19' E 002°12'0 0.0
2017-Oct-14 06:23N 41°19' E 002°12'0 0.7
2017-Oct-14 06:00N 41°18' E 002°13'12 7.2
2017-Oct-14 04:22N 41°07' E 002°08'3 9.0
2017-Oct-14 04:00N 41°04' E 002°06'5 8.9
2017-Oct-14 03:30N 41°00' E 002°04'98 8.3
2017-Oct-13 15:38N 39°29' E 001°17'1 8.8
2017-Oct-13 15:30N 39°28' E 001°17'5 8.8
2017-Oct-13 14:59N 39°23' E 001°15'5 9.1
2017-Oct-13 14:24N 39°18' E 001°13'4 9.3
2017-Oct-13 14:00N 39°15' E 001°12'5 9.6
2017-Oct-13 13:29N 39°10' E 001°10'510.0
2017-Oct-13 12:57N 39°05' E 001°07'510.2
2017-Oct-13 12:29N 39°01' E 001°05'510.0
2017-Oct-13 12:00N 38°56' E 001°02'25 9.5
2017-Oct-13 09:23N 38°33' E 000°50'4 9.5
2017-Oct-13 09:00N 38°30' E 000°49'3 5.8
2017-Oct-13 08:25N 38°27' E 000°47'4 9.7
2017-Oct-13 08:00N 38°23' E 000°45'5 9.8
2017-Oct-13 07:27N 38°18' E 000°42'510.2
2017-Oct-13 06:59N 38°14' E 000°40'810.4
2017-Oct-13 06:14N 38°07' E 000°34'510.8
2017-Oct-13 05:47N 38°04' E 000°30'3 9.4
2017-Oct-13 05:30N 38°02' E 000°28'5 9.3
2017-Oct-13 05:00N 37°58' E 000°24'4 8.1
2017-Oct-13 04:29N 37°54' E 000°24'4 9.0
2017-Oct-13 04:00N 37°51' E 000°27'5 9.1
2017-Oct-13 03:29N 37°47' E 000°31'5 9.3
2017-Oct-13 02:55N 37°41' E 000°31'6 8.7
2017-Oct-13 02:15N 37°40' E 000°24'2 9.1
2017-Oct-13 02:00N 37°39' E 000°21'510.0
2017-Oct-13 01:30N 37°34' E 000°19'5 9.5
2017-Oct-13 01:00N 37°30' E 000°17'5 9.2
2017-Oct-13 00:31N 37°25' E 000°15'3 5.2
2017-Oct-13 00:00N 37°23' E 000°15'4 8.2
2017-Oct-12 23:30N 37°19' E 000°12'5 9.3
2017-Oct-12 23:00N 37°15' E 000°10'5 9.1
2017-Oct-12 22:30N 37°11' E 000°08'4 7.1
2017-Oct-12 22:00N 37°07' E 000°06'4 8.7
2017-Oct-12 21:30N 37°03' E 000°04'4 8.7
2017-Oct-12 21:00N 36°59' E 000°02'4 8.7
2017-Oct-12 20:30N 36°55' W 000°00'5 8.7
2017-Oct-12 19:59N 36°51' W 000°02'4 8.7
2017-Oct-12 19:30N 36°47' W 000°04'4 8.7
2017-Oct-12 19:00N 36°43' W 000°05'5 9.3
2017-Oct-12 18:30N 36°39' W 000°08'815.5
2017-Oct-12 18:00N 36°31' W 000°11'815.7
2017-Oct-12 17:30N 36°24' W 000°14'815.6
2017-Oct-12 17:00N 36°17' W 000°18'2115.9
2017-Oct-12 15:42N 35°58' W 000°29'316.2
2017-Oct-12 15:30N 35°55' W 000°31'14 0.7
2017-Oct-11 18:39N 35°43' W 000°38'0 0.0
2017-Oct-11 18:29N 35°43' W 000°38'  
Track history (hours):
 
Tides and Currents Weather Stations Pressure Air Temp Water Temp Dewpoint Dewpoint Depression Visibility Wind Speed Wind Dir Waves Ship Positions

Holandia

Last reported at 2017-Oct-18 22:58 UTC. Time now 2017-Oct-19 15:06 UTC.
Position N 38°46' E 001°05'.

Length 132 m; draft 7.3 m.

Type: Ship (hazmat cat A). MMSI: 304134000.

Date/timePositionNaut miles runAvg speedWind from/ knotsBaromVisibWave heightAir tempDewpointWater temp
2017-Oct-18 22:58N 38°46' E 001°05'135 2.6
2017-Oct-16 19:05N 40°56' E 001°56'114.7
2017-Oct-16 19:00N 40°57' E 001°57'714.7
2017-Oct-16 18:30N 41°03' E 002°02'17 1.2
2017-Oct-16 04:08N 41°18' E 002°11'1 6.1
2017-Oct-16 03:57N 41°18' E 002°12'1 0.6
2017-Oct-16 02:47N 41°19' E 002°12'0 0.0
2017-Oct-16 02:29N 41°19' E 002°12'0 0.0
2017-Oct-16 01:17N 41°19' E 002°12'0 0.0
2017-Oct-15 23:35N 41°19' E 002°12'0 0.0
2017-Oct-14 12:59N 41°19' E 002°12'0 0.0
2017-Oct-14 12:14N 41°19' E 002°12'0 0.1
2017-Oct-14 11:59N 41°19' E 002°12'0 0.0
2017-Oct-14 06:23N 41°19' E 002°12'0 0.7
2017-Oct-14 06:00N 41°18' E 002°13'12 7.2
2017-Oct-14 04:22N 41°07' E 002°08'3 9.0
2017-Oct-14 04:00N 41°04' E 002°06'5 8.9
2017-Oct-14 03:30N 41°00' E 002°04'98 8.3
2017-Oct-13 15:38N 39°29' E 001°17'1 8.8
2017-Oct-13 15:30N 39°28' E 001°17'5 8.8
2017-Oct-13 14:59N 39°23' E 001°15'5 9.1
2017-Oct-13 14:24N 39°18' E 001°13'4 9.3
2017-Oct-13 14:00N 39°15' E 001°12'5 9.6
2017-Oct-13 13:29N 39°10' E 001°10'510.0
2017-Oct-13 12:57N 39°05' E 001°07'510.2
2017-Oct-13 12:29N 39°01' E 001°05'510.0
2017-Oct-13 12:00N 38°56' E 001°02'25 9.5
2017-Oct-13 09:23N 38°33' E 000°50'4 9.5
2017-Oct-13 09:00N 38°30' E 000°49'3 5.8
2017-Oct-13 08:25N 38°27' E 000°47'4 9.7
2017-Oct-13 08:00N 38°23' E 000°45'5 9.8
2017-Oct-13 07:27N 38°18' E 000°42'510.2
2017-Oct-13 06:59N 38°14' E 000°40'810.4
2017-Oct-13 06:14N 38°07' E 000°34'510.8
2017-Oct-13 05:47N 38°04' E 000°30'3 9.4
2017-Oct-13 05:30N 38°02' E 000°28'5 9.3
2017-Oct-13 05:00N 37°58' E 000°24'4 8.1
2017-Oct-13 04:29N 37°54' E 000°24'4 9.0
2017-Oct-13 04:00N 37°51' E 000°27'5 9.1
2017-Oct-13 03:29N 37°47' E 000°31'5 9.3
2017-Oct-13 02:55N 37°41' E 000°31'6 8.7
2017-Oct-13 02:15N 37°40' E 000°24'2 9.1
2017-Oct-13 02:00N 37°39' E 000°21'510.0
2017-Oct-13 01:30N 37°34' E 000°19'5 9.5
2017-Oct-13 01:00N 37°30' E 000°17'5 9.2
2017-Oct-13 00:31N 37°25' E 000°15'3 5.2
2017-Oct-13 00:00N 37°23' E 000°15'4 8.2
2017-Oct-12 23:30N 37°19' E 000°12'5 9.3
2017-Oct-12 23:00N 37°15' E 000°10'5 9.1
2017-Oct-12 22:30N 37°11' E 000°08'4 7.1
2017-Oct-12 22:00N 37°07' E 000°06'4 8.7
2017-Oct-12 21:30N 37°03' E 000°04'4 8.7
2017-Oct-12 21:00N 36°59' E 000°02'4 8.7
2017-Oct-12 20:30N 36°55' W 000°00'5 8.7
2017-Oct-12 19:59N 36°51' W 000°02'4 8.7
2017-Oct-12 19:30N 36°47' W 000°04'4 8.7
2017-Oct-12 19:00N 36°43' W 000°05'5 9.3
2017-Oct-12 18:30N 36°39' W 000°08'815.5
2017-Oct-12 18:00N 36°31' W 000°11'815.7
2017-Oct-12 17:30N 36°24' W 000°14'815.6
2017-Oct-12 17:00N 36°17' W 000°18'2115.9
2017-Oct-12 15:42N 35°58' W 000°29'316.2
2017-Oct-12 15:30N 35°55' W 000°31'14 0.7
2017-Oct-11 18:39N 35°43' W 000°38'0 0.0
2017-Oct-11 18:29N 35°43' W 000°38'  

Dump ship's entire track history